Time;durP1;ratioP1;P1;durP2;ratioP2;P2;SDS_P1;SDS_P2;PMS_P1;PMS_P2;Temp;Humidity;BMP_temperature;BMP_pressure;BME280_temperature;BME280_humidity;BME280_pressure;Samples;Min_cycle;Max_cycle;Signal;HPM_P1;HPM_P2
2022/11/27 00:01:45;;;;;;;26.00;11.95;;;;;;;5.84;62.98;101145.13;10372519;28;20570;-65
2022/11/27 00:06:46;;;;;;;23.10;11.23;;;;;;;5.74;63.22;101128.03;10347585;28;20068;-66
2022/11/27 00:11:48;;;;;;;19.20;9.32;;;;;;;5.60;63.22;101122.28;10361787;28;20050;-66
2022/11/27 00:16:50;;;;;;;17.73;10.85;;;;;;;5.62;63.48;101123.09;10349610;28;20133;-66
2022/11/27 00:21:51;;;;;;;22.30;11.25;;;;;;;5.77;63.32;101109.81;10360000;28;20388;-65
2022/11/27 00:26:53;;;;;;;19.70;10.75;;;;;;;5.80;62.92;101108.91;10352371;28;20049;-65
2022/11/27 00:31:55;;;;;;;22.40;11.65;;;;;;;5.76;63.11;101113.28;10350173;28;20168;-65
2022/11/27 00:36:56;;;;;;;24.25;12.05;;;;;;;5.83;63.42;101112.28;10347890;28;20053;-66
2022/11/27 00:41:58;;;;;;;21.17;12.50;;;;;;;5.93;62.88;101107.72;10350749;28;20061;-65
2022/11/27 00:47:00;;;;;;;19.63;12.57;;;;;;;5.91;63.10;101104.31;10345236;28;20521;-66
2022/11/27 00:52:01;;;;;;;22.23;11.90;;;;;;;5.87;62.98;101116.53;10347012;28;20054;-66
2022/11/27 00:57:03;;;;;;;20.48;11.38;;;;;;;5.91;63.32;101105.19;10349650;28;20060;-67
2022/11/27 01:02:05;;;;;;;21.75;12.05;;;;;;;5.86;63.15;101100.97;10359900;28;20406;-67
2022/11/27 01:07:07;;;;;;;23.58;12.13;;;;;;;5.87;63.23;101094.88;10351687;28;20390;-65
2022/11/27 01:12:08;;;;;;;22.52;12.07;;;;;;;5.81;63.23;101102.81;10359179;28;20065;-66
2022/11/27 01:17:10;;;;;;;25.67;12.52;;;;;;;5.90;63.23;101095.66;10376727;28;20056;-66
2022/11/27 01:22:12;;;;;;;19.38;11.50;;;;;;;5.90;63.20;101094.84;10366316;28;20509;-66
2022/11/27 01:27:13;;;;;;;28.20;13.43;;;;;;;5.97;63.16;101094.66;10356694;28;20556;-65
2022/11/27 01:32:15;;;;;;;24.38;12.80;;;;;;;6.02;62.99;101085.00;10358947;28;20056;-67
2022/11/27 01:37:17;;;;;;;25.73;12.63;;;;;;;6.04;63.07;101095.38;10355463;28;20414;-67
2022/11/27 01:42:18;;;;;;;22.77;12.50;;;;;;;6.04;63.06;101091.00;10346902;28;20045;-66
2022/11/27 01:47:58;;;;;;;23.25;12.55;;;;;;;5.91;62.97;101093.94;10361257;28;20104;-67
2022/11/27 01:53:11;;;;;;;20.60;11.35;;;;;;;5.90;63.09;101080.09;10273237;28;20057;-67
2022/11/27 01:58:18;;;;;;;22.95;11.82;;;;;;;5.74;63.07;101080.50;10355573;28;20064;-65
2022/11/27 02:03:20;;;;;;;20.83;12.00;;;;;;;5.78;63.45;101079.53;10346152;28;20104;-67
2022/11/27 02:08:23;;;;;;;20.65;12.57;;;;;;;5.79;63.22;101076.91;10357533;28;20048;-66
2022/11/27 02:13:34;;;;;;;20.35;11.68;;;;;;;5.82;63.49;101071.63;10364826;28;20049;-65
2022/11/27 02:19:05;;;;;;;19.13;12.02;;;;;;;5.74;63.15;101080.50;10346497;28;20411;-65
2022/11/27 02:24:22;;;;;;;22.57;12.73;;;;;;;5.79;63.59;101081.22;10346964;28;20053;-66
2022/11/27 02:29:28;;;;;;;23.05;11.38;;;;;;;5.77;63.05;101068.28;10342343;28;20049;-65
2022/11/27 02:34:38;;;;;;;24.17;11.85;;;;;;;5.60;63.15;101061.72;10343753;28;20046;-66
2022/11/27 02:39:50;;;;;;;;;;;;;;;5.18;63.50;101050.53;10345459;28;20105;-65
2022/11/27 02:44:57;;;;;;;21.80;13.70;;;;;;;5.41;63.68;101045.72;10354001;28;20797;-66
2022/11/27 02:50:01;;;;;;;22.00;11.52;;;;;;;5.27;63.37;101045.13;10359954;28;20049;-65
2022/11/27 02:55:07;;;;;;;26.55;12.00;;;;;;;5.21;63.56;101037.47;10342792;28;20057;-67
2022/11/27 03:00:10;;;;;;;22.65;14.25;;;;;;;5.14;63.80;101028.13;10342843;28;20313;-66
2022/11/27 03:05:16;;;;;;;23.85;13.68;;;;;;;5.12;63.87;101022.13;10353703;28;20053;-66
2022/11/27 03:10:47;;;;;;;25.55;15.35;;;;;;;5.27;63.81;101007.09;10359527;28;20054;-66
2022/11/27 03:16:09;;;;;;;26.90;15.83;;;;;;;5.34;64.04;101018.19;10355516;28;20060;-66
2022/11/27 03:21:36;;;;;;;27.15;15.07;;;;;;;5.51;63.50;101005.72;10365859;28;20073;-66
2022/11/27 03:26:39;;;;;;;34.47;15.35;;;;;;;5.60;63.55;100997.72;10350070;28;20525;-66
2022/11/27 03:31:41;;;;;;;18.90;12.38;;;;;;;5.69;63.20;100987.16;10356210;28;20076;-66
2022/11/27 03:36:44;;;;;;;23.52;13.50;;;;;;;5.67;63.45;100975.94;10350658;28;20054;-66
2022/11/27 03:41:56;;;;;;;27.55;14.52;;;;;;;5.74;63.82;100974.91;10362246;28;20042;-65
2022/11/27 03:47:09;;;;;;;24.23;13.13;;;;;;;5.69;63.45;100968.97;10351896;28;20418;-66
2022/11/27 03:52:23;;;;;;;26.38;14.05;;;;;;;5.72;64.06;100968.88;10350520;28;20307;-66
2022/11/27 03:57:46;;;;;;;27.13;14.85;;;;;;;5.86;63.58;100959.03;10353313;28;20521;-66
2022/11/27 04:02:52;;;;;;;25.38;13.00;;;;;;;5.74;63.61;100948.13;10358989;28;20050;-65
2022/11/27 04:07:54;;;;;;;25.95;14.43;;;;;;;5.73;63.85;100936.00;10355450;28;20049;-67
2022/11/27 04:12:56;;;;;;;23.20;14.35;;;;;;;5.72;63.75;100931.69;10349080;28;20068;-66
2022/11/27 04:17:57;;;;;;;26.83;14.43;;;;;;;5.58;63.93;100929.44;10373770;28;20046;-66
2022/11/27 04:22:59;;;;;;;25.48;15.32;;;;;;;5.61;63.79;100928.53;10348230;28;20272;-66
2022/11/27 04:28:00;;;;;;;26.58;14.43;;;;;;;5.60;63.89;100932.84;10349585;28;20050;-66
2022/11/27 04:33:02;;;;;;;29.20;14.95;;;;;;;5.58;64.08;100921.66;10354750;28;20485;-66
2022/11/27 04:38:04;;;;;;;28.17;16.20;;;;;;;5.50;64.10;100931.38;10356822;28;20053;-66
2022/11/27 04:43:06;;;;;;;27.15;15.63;;;;;;;5.63;64.33;100943.16;10364688;28;20540;-66
2022/11/27 04:48:07;;;;;;;24.88;13.60;;;;;;;5.58;64.30;100947.59;10349785;28;20088;-65
2022/11/27 04:53:09;;;;;;;26.00;13.85;;;;;;;5.62;64.35;100941.44;10349110;28;20053;-65
2022/11/27 04:58:11;;;;;;;20.85;13.93;;;;;;;5.59;64.38;100936.34;10367243;28;20536;-65
2022/11/27 05:03:12;;;;;;;24.25;15.18;;;;;;;5.63;64.24;100926.75;10347240;28;20046;-65
2022/11/27 05:08:14;;;;;;;29.02;14.70;;;;;;;5.63;64.37;100931.94;10361122;28;20582;-65
2022/11/27 05:13:16;;;;;;;28.25;15.38;;;;;;;5.50;64.25;100927.03;10359925;28;20445;-66
2022/11/27 05:18:17;;;;;;;26.33;16.23;;;;;;;5.34;64.57;100923.09;10364033;28;20569;-65
2022/11/27 05:23:19;;;;;;;26.30;15.82;;;;;;;5.36;64.76;100918.72;10345191;28;20395;-66
2022/11/27 05:28:21;;;;;;;24.58;15.45;;;;;;;5.34;64.62;100914.44;10344654;28;20080;-65
2022/11/27 05:33:27;;;;;;;27.48;15.85;;;;;;;5.30;64.98;100924.03;10346159;28;20057;-67
2022/11/27 05:38:29;;;;;;;26.20;17.65;;;;;;;5.22;64.99;100904.34;10354522;28;20057;-66
2022/11/27 05:43:30;;;;;;;30.02;16.83;;;;;;;5.16;65.03;100897.56;10358197;28;20053;-66
2022/11/27 05:48:33;;;;;;;35.95;18.75;;;;;;;4.89;65.16;100898.16;10350014;28;20384;-65
2022/11/27 05:53:35;;;;;;;31.20;17.73;;;;;;;4.87;65.58;100897.34;10341492;28;20068;-66
2022/11/27 05:58:38;;;;;;;38.35;20.02;;;;;;;4.90;65.65;100881.75;10360568;28;20244;-67
2022/11/27 06:03:39;;;;;;;35.25;19.40;;;;;;;4.90;65.52;100863.59;10345604;28;20054;-65
2022/11/27 06:08:42;;;;;;;33.00;21.67;;;;;;;4.75;66.16;100839.72;10363284;28;20053;-65
2022/11/27 06:13:45;;;;;;;37.58;20.67;;;;;;;4.75;66.67;100834.53;10356543;28;20065;-66
2022/11/27 06:18:52;;;;;;;36.30;20.30;;;;;;;4.79;66.93;100850.00;10369715;28;20050;-65
2022/11/27 06:23:55;;;;;;;27.45;16.95;;;;;;;4.69;66.74;100848.50;10344066;28;20328;-65
2022/11/27 06:28:58;;;;;;;31.02;18.10;;;;;;;4.80;66.66;100853.47;10357909;28;20734;-65
2022/11/27 06:34:01;;;;;;;32.22;19.10;;;;;;;4.91;66.45;100846.28;10347738;28;20285;-65
2022/11/27 06:39:04;;;;;;;35.45;19.95;;;;;;;4.92;66.54;100843.69;10351813;28;20050;-65
2022/11/27 06:44:06;;;;;;;32.63;19.35;;;;;;;4.81;66.82;100849.97;10349275;28;20038;-65
2022/11/27 06:49:08;;;;;;;31.98;19.45;;;;;;;4.81;67.04;100855.16;10351316;28;20060;-66
2022/11/27 06:54:09;;;;;;;35.17;19.85;;;;;;;4.72;67.44;100849.28;10351550;28;20053;-66
2022/11/27 06:59:13;;;;;;;30.33;19.08;;;;;;;4.59;67.74;100834.91;10364769;28;20053;-65
2022/11/27 07:04:15;;;;;;;35.17;20.20;;;;;;;4.54;67.93;100852.25;10353304;28;20065;-65
2022/11/27 07:09:17;;;;;;;32.78;19.42;;;;;;;4.48;68.18;100828.22;10345761;28;20060;-65
2022/11/27 07:14:18;;;;;;;34.70;19.95;;;;;;;4.31;68.50;100818.19;10337192;28;20605;-66
2022/11/27 07:19:20;;;;;;;28.98;17.52;;;;;;;4.17;69.43;100809.03;10344184;28;20050;-66
2022/11/27 07:24:21;;;;;;;37.47;18.77;;;;;;;4.18;69.24;100796.03;10360271;28;20053;-66
2022/11/27 07:29:23;;;;;;;31.08;17.42;;;;;;;4.20;69.13;100806.34;10348147;28;20742;-66
2022/11/27 07:34:25;;;;;;;35.78;18.38;;;;;;;4.22;68.78;100815.81;10345322;28;20069;-67
2022/11/27 07:39:26;;;;;;;31.48;18.00;;;;;;;4.32;68.87;100822.50;10353227;28;20048;-66
2022/11/27 07:44:48;;;;;;;;;;;;;;;4.27;68.90;100816.53;10358636;28;20100;-67
2022/11/27 07:49:50;;;;;;;29.30;16.85;;;;;;;4.50;68.28;100813.50;10363422;28;20459;-66
2022/11/27 07:54:51;;;;;;;23.20;15.68;;;;;;;4.58;68.14;100796.91;10355958;28;20307;-66
2022/11/27 07:59:53;;;;;;;29.45;16.50;;;;;;;4.76;67.63;100794.81;10352989;28;20061;-66
2022/11/27 08:04:55;;;;;;;30.23;16.83;;;;;;;4.77;67.51;100789.59;10365802;28;20514;-66
2022/11/27 08:09:57;;;;;;;23.60;15.10;;;;;;;4.84;67.64;100780.78;10349816;28;20068;-66
2022/11/27 08:14:58;;;;;;;26.48;16.55;;;;;;;4.94;67.44;100784.03;10349452;28;20057;-66
2022/11/27 08:20:00;;;;;;;26.33;14.73;;;;;;;4.93;67.20;100782.31;10358748;28;20052;-66
2022/11/27 08:25:02;;;;;;;25.40;15.00;;;;;;;5.01;67.03;100785.56;10354879;28;20065;-66
2022/11/27 08:30:04;;;;;;;23.85;15.57;;;;;;;5.19;66.70;100785.13;10362415;28;20042;-66
2022/11/27 08:35:07;;;;;;;25.27;15.77;;;;;;;5.48;66.65;100772.28;10349227;28;20056;-66
2022/11/27 08:40:09;;;;;;;25.25;15.40;;;;;;;5.43;66.13;100776.75;10349000;28;20307;-66
2022/11/27 08:45:11;;;;;;;26.10;15.32;;;;;;;5.32;66.27;100773.56;10358471;28;20045;-66
2022/11/27 08:50:13;;;;;;;24.55;15.30;;;;;;;5.48;66.21;100769.69;10344671;28;20058;-66
2022/11/27 08:55:16;;;;;;;29.08;16.00;;;;;;;5.57;66.01;100779.00;10363626;28;20046;-66
2022/11/27 09:00:18;;;;;;;25.13;15.52;;;;;;;5.41;66.30;100765.56;10351369;28;20145;-66
2022/11/27 09:05:28;;;;;;;24.17;14.30;;;;;;;5.24;67.00;100754.75;10353279;28;20053;-66
2022/11/27 09:10:30;;;;;;;23.40;14.57;;;;;;;5.40;66.72;100748.28;10354193;28;20426;-66
2022/11/27 09:15:31;;;;;;;22.63;13.77;;;;;;;5.46;66.71;100743.81;10375083;28;20060;-66
2022/11/27 09:20:33;;;;;;;23.25;14.07;;;;;;;5.78;66.37;100732.53;10348368;28;20049;-66
2022/11/27 09:25:38;;;;;;;21.65;13.57;;;;;;;5.89;65.71;100712.34;10356837;28;20224;-67
2022/11/27 09:30:40;;;;;;;24.45;13.18;;;;;;;6.16;65.38;100716.75;10352961;28;20498;-66
2022/11/27 09:35:42;;;;;;;18.35;11.65;;;;;;;6.23;65.07;100713.06;10349549;28;20491;-65
2022/11/27 09:40:51;;;;;;;21.35;11.77;;;;;;;6.63;64.02;100691.97;10333449;28;20426;-66
2022/11/27 09:45:59;;;;;;;18.70;10.13;;;;;;;6.97;63.95;100699.50;10357219;28;20054;-66
2022/11/27 09:51:08;;;;;;;12.05;7.75;;;;;;;7.26;62.81;100673.38;10343752;28;20462;-66
2022/11/27 09:56:13;;;;;;;17.48;8.07;;;;;;;7.36;62.09;100677.38;10364575;28;20057;-65
2022/11/27 10:01:23;;;;;;;14.05;7.95;;;;;;;7.53;61.52;100666.38;10352739;28;20065;-65
2022/11/27 10:07:03;;;;;;;15.15;8.32;;;;;;;7.57;60.89;100671.38;10361419;28;20123;-66
2022/11/27 10:12:15;;;;;;;15.15;7.90;;;;;;;7.63;60.20;100671.16;10363522;28;20520;-66
2022/11/27 10:18:09;;;;;;;15.20;7.63;;;;;;;7.49;59.34;100643.97;10357791;28;20049;-65
2022/11/27 10:23:35;;;;;;;16.33;7.75;;;;;;;7.53;60.16;100629.94;10340556;28;20052;-66
2022/11/27 10:28:49;;;;;;;16.50;7.00;;;;;;;7.68;59.84;100635.41;10342644;28;20530;-65
2022/11/27 10:33:55;;;;;;;14.27;6.60;;;;;;;7.73;59.41;100630.06;10350763;28;20045;-67
2022/11/27 10:38:59;;;;;;;13.40;6.45;;;;;;;7.74;59.31;100624.78;10343992;28;20479;-66
2022/11/27 10:44:19;;;;;;;11.60;6.68;;;;;;;7.77;58.87;100606.41;10350263;28;20057;-72
2022/11/27 10:49:21;;;;;;;13.80;6.30;;;;;;;7.82;59.17;100594.09;10359279;28;20541;-72
2022/11/27 10:54:32;;;;;;;15.38;6.60;;;;;;;7.97;58.00;100579.63;10345078;28;20320;-72
2022/11/27 10:59:47;;;;;;;11.40;6.55;;;;;;;8.05;58.08;100593.22;10349171;28;20058;-72
2022/11/27 11:04:48;;;;;;;13.00;6.75;;;;;;;8.33;57.37;100582.56;10357554;28;20045;-71
2022/11/27 11:10:29;;;;;;;13.13;6.75;;;;;;;8.30;56.46;100580.97;10341353;28;20056;-72
2022/11/27 11:15:32;;;;;;;13.10;6.80;;;;;;;8.31;57.54;100590.47;10375164;28;20057;-72
2022/11/27 11:20:33;;;;;;;12.25;7.10;;;;;;;8.47;57.16;100575.88;10350828;28;20096;-71
2022/11/27 11:25:35;;;;;;;12.88;6.65;;;;;;;8.55;57.28;100563.38;10352906;28;20590;-71
2022/11/27 11:30:38;;;;;;;9.70;6.15;;;;;;;8.55;57.28;100557.31;10358970;28;20050;-71
2022/11/27 11:35:40;;;;;;;9.35;5.78;;;;;;;8.71;56.73;100548.78;10353361;28;20049;-72
2022/11/27 11:40:45;;;;;;;11.40;5.82;;;;;;;8.83;55.74;100537.84;10349444;28;20418;-71
2022/11/27 11:45:47;;;;;;;10.65;6.15;;;;;;;8.77;55.58;100522.44;10365257;28;20057;-71
2022/11/27 11:50:53;;;;;;;10.00;5.57;;;;;;;8.76;55.26;100515.56;10347990;28;20051;-71
2022/11/27 11:56:11;;;;;;;10.77;6.07;;;;;;;8.70;54.84;100505.41;10367449;28;20058;-72
2022/11/27 12:01:35;;;;;;;10.75;6.28;;;;;;;8.53;54.92;100499.19;10361401;28;20072;-72
2022/11/27 12:07:02;;;;;;;10.65;6.38;;;;;;;8.40;54.71;100492.81;10358081;28;20096;-72
2022/11/27 12:12:19;;;;;;;9.88;5.95;;;;;;;8.28;55.32;100498.53;10367187;28;20516;-72
2022/11/27 12:17:38;;;;;;;10.73;5.63;;;;;;;8.07;54.90;100492.41;10365151;28;20072;-72
2022/11/27 12:23:20;;;;;;;11.40;6.00;;;;;;;7.75;55.05;100472.84;10347451;28;20630;-72
2022/11/27 12:29:10;;;;;;;14.65;5.78;;;;;;;7.71;55.84;100476.47;10355221;28;20053;-72
2022/11/27 12:34:22;;;;;;;9.90;5.47;;;;;;;7.72;55.44;100462.56;10334572;28;20210;-72
2022/11/27 12:39:45;;;;;;;10.38;5.40;;;;;;;7.86;55.28;100462.84;10353637;28;20053;-72
2022/11/27 12:44:59;;;;;;;10.15;5.07;;;;;;;7.93;55.12;100453.91;10362995;28;21022;-71
2022/11/27 12:50:09;;;;;;;12.38;5.78;;;;;;;7.99;55.48;100458.88;10348626;28;20145;-72
2022/11/27 12:55:17;;;;;;;11.20;6.03;;;;;;;8.14;55.57;100446.16;10359382;28;20057;-72
2022/11/27 13:00:25;;;;;;;11.93;6.20;;;;;;;8.16;55.47;100431.31;10352650;28;20058;-72
2022/11/27 13:05:31;;;;;;;9.85;5.88;;;;;;;8.24;55.37;100431.81;10350057;28;20054;-72
2022/11/27 13:10:40;;;;;;;12.98;5.70;;;;;;;8.30;54.82;100428.97;10344851;28;20052;-72
2022/11/27 13:16:03;;;;;;;9.52;5.93;;;;;;;8.18;54.87;100419.06;10353902;28;20498;-72
2022/11/27 13:21:10;;;;;;;9.77;5.80;;;;;;;8.21;55.48;100411.09;10352178;28;20046;-74
2022/11/27 13:26:59;;;;;;;13.13;6.13;;;;;;;8.03;55.21;100400.53;10356226;28;20062;-72
2022/11/27 13:32:03;;;;;;;9.52;5.75;;;;;;;8.03;55.32;100384.03;10341777;28;20043;-72
2022/11/27 13:37:07;;;;;;;11.15;5.55;;;;;;;7.84;55.42;100377.88;10349834;28;20057;-73
2022/11/27 13:42:21;;;;;;;10.00;5.55;;;;;;;7.67;55.23;100368.16;10353179;28;20422;-72
2022/11/27 13:47:26;;;;;;;9.50;5.47;;;;;;;7.68;55.85;100354.25;10351177;28;20520;-72
2022/11/27 13:52:29;;;;;;;10.63;7.10;;;;;;;7.58;55.85;100342.53;10341701;28;20046;-72
2022/11/27 13:57:33;;;;;;;12.65;5.85;;;;;;;7.52;55.88;100319.38;10345510;28;20490;-72
2022/11/27 14:02:42;;;;;;;11.05;5.82;;;;;;;7.38;55.15;100315.63;10350877;28;20053;-71
2022/11/27 14:07:49;;;;;;;13.45;6.00;;;;;;;7.34;55.18;100296.69;10353941;28;20133;-72
2022/11/27 14:13:01;;;;;;;10.07;5.25;;;;;;;7.19;55.14;100279.09;10358392;28;20155;-72
2022/11/27 14:18:09;;;;;;;9.90;4.72;;;;;;;7.18;54.93;100270.44;10351442;28;20513;-72
2022/11/27 14:23:11;;;;;;;9.95;5.13;;;;;;;7.25;55.75;100271.03;10340797;28;20042;-72
2022/11/27 14:28:18;;;;;;;10.00;5.13;;;;;;;7.24;55.67;100264.16;10355057;28;20050;-72
2022/11/27 14:33:24;;;;;;;9.80;4.88;;;;;;;7.24;55.21;100268.50;10348367;28;20541;-72
2022/11/27 14:38:28;;;;;;;9.10;4.65;;;;;;;7.27;55.62;100279.63;10358440;28;20558;-71
2022/11/27 14:43:30;;;;;;;10.18;5.38;;;;;;;7.27;54.89;100273.56;10351825;28;20049;-72
2022/11/27 14:48:43;;;;;;;8.88;5.10;;;;;;;7.27;54.52;100279.63;10344067;28;20054;-72
2022/11/27 14:53:52;;;;;;;9.77;5.40;;;;;;;7.15;54.23;100257.56;10340995;28;20678;-72
2022/11/27 14:58:54;;;;;;;10.50;5.90;;;;;;;7.03;54.97;100268.47;10350315;28;20042;-72
2022/11/27 15:04:04;;;;;;;10.38;6.00;;;;;;;7.03;54.79;100273.66;10370948;28;20049;-72
2022/11/27 15:09:18;;;;;;;14.05;6.35;;;;;;;7.02;54.46;100263.34;10363088;28;20050;-72
2022/11/27 15:14:32;;;;;;;11.30;5.60;;;;;;;6.90;55.20;100274.19;10352630;28;20057;-72
2022/11/27 15:19:36;;;;;;;10.93;6.40;;;;;;;6.91;55.09;100275.91;10354104;28;20064;-72
2022/11/27 15:24:38;;;;;;;10.68;5.55;;;;;;;6.86;55.09;100267.44;10360959;28;20042;-71
2022/11/27 15:30:02;;;;;;;11.30;5.47;;;;;;;6.88;55.13;100261.25;10343351;28;20096;-72
2022/11/27 15:35:12;;;;;;;11.52;6.40;;;;;;;6.82;54.93;100261.50;10327234;28;20149;-71
2022/11/27 15:40:26;;;;;;;13.88;7.15;;;;;;;6.76;55.37;100250.50;10340269;28;20049;-72
2022/11/27 15:45:30;;;;;;;10.60;5.80;;;;;;;6.78;55.51;100249.53;10345458;28;20057;-71
2022/11/27 15:50:32;;;;;;;12.05;6.30;;;;;;;6.80;55.45;100252.91;10343478;28;20481;-72
2022/11/27 15:55:33;;;;;;;10.07;5.43;;;;;;;6.73;55.63;100246.28;10350776;28;20061;-71
2022/11/27 16:00:35;;;;;;;8.48;5.30;;;;;;;6.71;55.83;100236.84;10347310;28;20563;-71
2022/11/27 16:05:37;;;;;;;10.98;5.60;;;;;;;6.78;55.42;100253.88;10361666;28;20260;-65
2022/11/27 16:10:39;;;;;;;9.50;5.38;;;;;;;6.85;55.48;100243.19;10346444;28;20042;-65
2022/11/27 16:15:41;;;;;;;11.68;5.97;;;;;;;6.87;55.47;100258.72;10348349;28;20049;-65
2022/11/27 16:20:43;;;;;;;9.82;5.60;;;;;;;6.87;55.79;100250.94;10350476;28;20049;-64
2022/11/27 16:25:44;;;;;;;12.27;8.95;;;;;;;6.83;55.61;100254.56;10356652;28;20049;-64
2022/11/27 16:30:46;;;;;;;10.70;6.60;;;;;;;6.91;55.56;100255.09;10345297;28;20068;-64
2022/11/27 16:35:47;;;;;;;11.02;6.75;;;;;;;6.90;56.09;100241.25;10366468;28;20352;-65
2022/11/27 16:40:49;;;;;;;11.02;6.28;;;;;;;6.90;56.39;100230.84;10347966;28;20043;-66
2022/11/27 16:45:51;;;;;;;10.77;5.80;;;;;;;6.81;56.44;100219.97;10354121;28;20507;-65
2022/11/27 16:51:06;;;;;;;7.75;5.10;;;;;;;6.76;56.28;100219.31;10351909;28;20060;-66
2022/11/27 16:56:10;;;;;;;11.68;5.82;;;;;;;6.84;56.81;100206.84;10357060;28;20042;-66
2022/11/27 17:01:21;;;;;;;9.50;5.13;;;;;;;6.74;56.51;100190.78;10351372;28;20531;-66
2022/11/27 17:06:35;;;;;;;13.15;5.68;;;;;;;6.61;57.08;100187.00;10356640;28;20816;-66
2022/11/27 17:11:42;;;;;;;10.45;5.93;;;;;;;6.67;56.63;100176.34;10368987;28;20057;-66
2022/11/27 17:16:44;;;;;;;10.65;6.38;;;;;;;6.69;56.47;100158.94;10352710;28;20479;-66
2022/11/27 17:21:45;;;;;;;12.32;6.25;;;;;;;6.66;56.88;100163.41;10358110;28;20056;-65
2022/11/27 17:26:47;;;;;;;12.43;6.78;;;;;;;6.65;56.96;100149.59;10347926;28;20058;-65
2022/11/27 17:31:49;;;;;;;11.65;7.57;;;;;;;6.64;57.31;100145.28;10363716;28;20402;-65
2022/11/27 17:36:56;;;;;;;14.05;8.20;;;;;;;6.65;58.02;100123.59;10354832;28;20574;-65
2022/11/27 17:41:57;;;;;;;16.38;8.27;;;;;;;6.74;58.05;100127.56;10353383;28;20553;-65
2022/11/27 17:46:59;;;;;;;12.93;8.15;;;;;;;6.71;58.49;100112.09;10345287;28;20411;-66
2022/11/27 17:52:00;;;;;;;17.70;8.57;;;;;;;6.63;58.89;100104.63;10360400;28;20695;-66
2022/11/27 17:57:07;;;;;;;13.52;9.15;;;;;;;6.71;59.09;100096.50;10346538;28;20530;-65
2022/11/27 18:02:10;;;;;;;15.05;8.95;;;;;;;6.62;59.20;100073.47;10348763;28;20390;-66
2022/11/27 18:07:12;;;;;;;13.52;9.68;;;;;;;6.57;59.89;100063.25;10362827;28;20324;-65
2022/11/27 18:12:14;;;;;;;13.40;9.10;;;;;;;6.63;59.89;100046.59;10365126;28;20060;-66
2022/11/27 18:17:16;;;;;;;18.80;9.60;;;;;;;6.75;59.78;100039.13;10356735;28;20053;-65
2022/11/27 18:22:18;;;;;;;13.50;9.52;;;;;;;6.80;59.82;100036.31;10349211;28;20080;-66
2022/11/27 18:27:20;;;;;;;14.10;9.02;;;;;;;6.87;59.75;100035.16;10345053;28;20057;-65
2022/11/27 18:32:21;;;;;;;16.63;9.45;;;;;;;6.77;59.79;100018.28;10365881;28;20100;-65
2022/11/27 18:37:23;;;;;;;14.30;9.07;;;;;;;6.48;60.36;100010.84;10356990;28;20068;-66
2022/11/27 18:42:25;;;;;;;14.98;9.52;;;;;;;6.40;60.86;99984.34;10357480;28;20053;-66
2022/11/27 18:47:27;;;;;;;15.35;9.57;;;;;;;6.37;61.11;99971.50;10344185;28;20402;-65
2022/11/27 18:52:29;;;;;;;16.25;9.18;;;;;;;6.38;61.07;99979.22;10347844;28;20053;-65
2022/11/27 18:57:30;;;;;;;14.02;8.32;;;;;;;6.40;61.00;99987.81;10350700;28;20053;-65
2022/11/27 19:02:32;;;;;;;18.13;9.15;;;;;;;6.50;61.01;99998.63;10342130;28;20418;-64
2022/11/27 19:07:34;;;;;;;13.45;8.88;;;;;;;6.72;60.76;99999.41;10342726;28;20053;-65
2022/11/27 19:12:35;;;;;;;13.63;8.57;;;;;;;6.87;60.67;100001.38;10365156;28;20076;-64
2022/11/27 19:17:37;;;;;;;13.25;8.50;;;;;;;6.72;60.53;99991.63;10356035;28;20065;-64
2022/11/27 19:22:39;;;;;;;13.02;7.93;;;;;;;6.58;60.63;99980.97;10343227;28;20689;-65
2022/11/27 19:27:40;;;;;;;13.85;8.60;;;;;;;6.53;60.94;99965.56;10368280;28;20549;-64
2022/11/27 19:32:42;;;;;;;15.35;8.23;;;;;;;6.53;61.55;99967.34;10357944;28;20483;-64
2022/11/27 19:37:43;;;;;;;11.40;8.02;;;;;;;6.51;61.10;99954.41;10359823;28;20045;-65
2022/11/27 19:42:45;;;;;;;12.73;8.05;;;;;;;6.49;61.01;99952.81;10360793;28;20038;-66
2022/11/27 19:47:47;;;;;;;15.52;7.60;;;;;;;6.55;60.69;99955.13;10353039;28;20498;-65
2022/11/27 19:52:48;;;;;;;14.30;8.25;;;;;;;6.37;61.19;99937.75;10365062;28;20053;-65
2022/11/27 19:57:50;;;;;;;12.40;8.27;;;;;;;6.28;61.26;99939.81;10364486;28;20057;-66
2022/11/27 20:02:52;;;;;;;12.02;8.10;;;;;;;6.32;61.12;99941.38;10359823;28;20417;-65
2022/11/27 20:07:54;;;;;;;14.73;8.25;;;;;;;6.40;60.97;99940.19;10357259;28;20062;-65
2022/11/27 20:12:59;;;;;;;13.55;9.00;;;;;;;6.60;60.73;99943.63;10349352;28;20046;-66
2022/11/27 20:18:01;;;;;;;13.73;8.40;;;;;;;6.73;60.34;99928.34;10356192;28;20059;-65
2022/11/27 20:23:03;;;;;;;13.57;8.27;;;;;;;6.57;60.54;99925.56;10345604;28;20330;-65
2022/11/27 20:28:04;;;;;;;13.57;8.07;;;;;;;6.52;60.84;99914.53;10352880;28;20057;-65
2022/11/27 20:33:06;;;;;;;10.52;7.20;;;;;;;6.63;60.61;99920.13;10351273;28;20057;-65
2022/11/27 20:38:08;;;;;;;11.57;7.22;;;;;;;6.34;60.87;99920.53;10358107;28;20672;-64
2022/11/27 20:43:10;;;;;;;11.65;7.93;;;;;;;6.20;61.29;99907.25;10380194;28;20050;-64
2022/11/27 20:48:11;;;;;;;11.05;7.90;;;;;;;6.21;61.19;99898.53;10350067;28;20506;-65
2022/11/27 20:53:13;;;;;;;13.43;7.90;;;;;;;6.21;61.29;99894.19;10348785;28;20060;-64
2022/11/27 20:58:14;;;;;;;12.90;8.05;;;;;;;6.17;61.51;99897.84;10376373;28;20054;-65
2022/11/27 21:03:16;;;;;;;12.45;7.53;;;;;;;6.27;61.57;99899.16;10364207;28;20505;-66
2022/11/27 21:08:18;;;;;;;11.02;7.43;;;;;;;6.48;61.26;99901.75;10373133;28;20057;-66
2022/11/27 21:13:19;;;;;;;13.90;7.90;;;;;;;6.37;60.83;99890.97;10366025;28;20772;-64
2022/11/27 21:18:21;;;;;;;10.15;7.90;;;;;;;6.18;61.23;99890.91;10349343;28;20058;-64
2022/11/27 21:23:23;;;;;;;13.30;8.60;;;;;;;6.06;61.48;99892.22;10348796;28;20068;-64
2022/11/27 21:28:24;;;;;;;11.82;8.18;;;;;;;5.99;61.57;99887.38;10357749;28;20084;-65
2022/11/27 21:33:26;;;;;;;11.07;7.93;;;;;;;5.95;61.69;99881.47;10348756;28;20779;-66
2022/11/27 21:38:27;;;;;;;12.18;8.77;;;;;;;6.03;61.60;99876.81;10359148;28;20057;-66
2022/11/27 21:43:30;;;;;;;11.63;8.50;;;;;;;6.03;61.51;99876.81;10364951;28;20050;-65
2022/11/27 21:48:32;;;;;;;11.77;8.35;;;;;;;5.97;61.75;99860.63;10361834;28;20050;-65
2022/11/27 21:53:33;;;;;;;11.45;9.00;;;;;;;5.86;61.90;99858.47;10343455;28;20054;-66
2022/11/27 21:58:36;;;;;;;14.57;9.50;;;;;;;5.92;62.04;99850.44;10373487;28;20616;-65
2022/11/27 22:03:38;;;;;;;12.02;8.68;;;;;;;5.91;62.00;99848.75;10343576;28;20046;-65
2022/11/27 22:08:46;;;;;;;11.80;8.50;;;;;;;5.96;61.86;99856.38;10359712;28;20224;-65
2022/11/27 22:13:47;;;;;;;13.15;9.38;;;;;;;5.99;61.77;99854.47;10359317;28;20045;-65
2022/11/27 22:18:51;;;;;;;13.57;8.98;;;;;;;5.92;61.87;99850.44;10342136;28;20049;-66
2022/11/27 22:23:53;;;;;;;13.55;8.60;;;;;;;5.84;61.90;99847.31;10342515;28;20065;-65
2022/11/27 22:28:56;;;;;;;13.15;9.00;;;;;;;5.89;61.97;99841.94;10343315;28;20062;-65
2022/11/27 22:33:59;;;;;;;12.57;8.73;;;;;;;5.94;62.00;99840.00;10368678;28;20430;-66
2022/11/27 22:39:03;;;;;;;11.45;9.07;;;;;;;5.93;61.83;99839.16;10356503;28;20045;-65
2022/11/27 22:44:07;;;;;;;11.35;8.55;;;;;;;6.06;61.70;99836.91;10355785;28;20426;-65
2022/11/27 22:49:11;;;;;;;13.10;8.80;;;;;;;5.99;61.54;99828.50;10367830;28;20062;-65
2022/11/27 22:54:15;;;;;;;12.23;8.90;;;;;;;5.98;61.45;99834.59;10341396;28;20046;-65
2022/11/27 22:59:17;;;;;;;12.82;8.93;;;;;;;6.03;61.69;99818.84;10342019;28;20498;-65
2022/11/27 23:04:36;;;;;;;12.35;8.85;;;;;;;6.07;61.77;99818.66;10353783;28;20123;-66
2022/11/27 23:09:38;;;;;;;11.45;8.73;;;;;;;5.91;61.75;99803.78;10360560;28;20061;-65
2022/11/27 23:14:39;;;;;;;12.27;8.77;;;;;;;5.78;62.00;99790.50;10341978;28;20437;-66
2022/11/27 23:19:41;;;;;;;13.50;9.52;;;;;;;5.70;62.19;99796.91;10342348;28;20414;-65
2022/11/27 23:24:43;;;;;;;12.13;8.15;;;;;;;5.44;62.26;99787.63;10344078;28;20044;-66